Time;durP1;ratioP1;P1;durP2;ratioP2;P2;SDS_P1;SDS_P2;PMS_P1;PMS_P2;Temp;Humidity;BMP_temperature;BMP_pressure;BME280_temperature;BME280_humidity;BME280_pressure;Samples;Min_cycle;Max_cycle;Signal;HPM_P1;HPM_P2
2022/06/10 00:01:01;;;;;;;6.20;1.60;;;;;;;17.60;76.09;100201.28;106264;1268;22571;-53
2022/06/10 00:03:32;;;;;;;9.50;1.50;;;;;;;17.60;76.04;100206.70;106192;1268;22557;-51
2022/06/10 00:06:07;;;;;;;8.10;2.00;;;;;;;17.57;76.20;100205.73;106070;1268;22529;-54
2022/06/10 00:08:41;;;;;;;5.60;1.70;;;;;;;17.55;76.34;100210.06;106346;1268;24274;-55
2022/06/10 00:11:14;;;;;;;5.90;1.40;;;;;;;17.52;76.26;100209.02;106210;1268;22531;-54
2022/06/10 00:13:48;;;;;;;5.70;1.70;;;;;;;17.51;76.37;100212.46;106224;1268;22529;-53
2022/06/10 00:16:21;;;;;;;7.10;1.70;;;;;;;17.50;76.43;100217.05;106081;1268;22534;-53
2022/06/10 00:18:53;;;;;;;6.20;1.40;;;;;;;17.49;76.53;100215.45;106053;1268;24240;-54
2022/06/10 00:21:25;;;;;;;7.80;1.70;;;;;;;17.47;76.56;100220.02;106019;1268;22525;-54
2022/06/10 00:23:57;;;;;;;6.30;2.10;;;;;;;17.46;76.70;100221.67;106163;1268;24289;-55
2022/06/10 00:26:29;;;;;;;6.90;1.70;;;;;;;17.45;76.68;100227.79;106109;1268;22526;-52
2022/06/10 00:29:01;;;;;;;7.10;2.10;;;;;;;17.44;76.65;100224.86;106146;1268;22551;-53
2022/06/10 00:31:33;;;;;;;5.30;1.80;;;;;;;17.44;76.77;100226.25;106276;1268;22579;-56
2022/06/10 00:34:04;;;;;;;5.60;1.60;;;;;;;17.44;76.63;100227.48;106147;1268;24239;-56
2022/06/10 00:36:36;;;;;;;6.70;1.80;;;;;;;17.42;76.84;100229.10;106052;1268;25496;-55
2022/06/10 00:39:08;;;;;;;7.40;2.00;;;;;;;17.41;76.94;100232.34;106067;1268;22564;-55
2022/06/10 00:41:43;;;;;;;8.00;2.00;;;;;;;17.38;77.05;100238.16;106198;1268;22528;-53
2022/06/10 00:44:36;;;;;;;5.90;1.70;;;;;;;17.35;77.16;100238.04;106170;1268;22545;-53
2022/06/10 00:47:15;;;;;;;7.20;2.10;;;;;;;17.33;77.32;100239.02;106061;1268;23077;-56
2022/06/10 00:49:53;;;;;;;6.10;2.10;;;;;;;17.30;77.44;100241.83;106120;1268;25204;-55
2022/06/10 00:52:28;;;;;;;4.80;1.50;;;;;;;17.28;77.31;100243.64;106232;1268;22532;-55
2022/06/10 00:55:01;;;;;;;6.90;1.90;;;;;;;17.24;77.61;100243.81;106055;1268;25562;-52
2022/06/10 00:57:38;;;;;;;6.80;2.10;;;;;;;17.22;77.58;100246.64;106058;1268;24461;-54
2022/06/10 01:00:15;;;;;;;6.40;1.90;;;;;;;17.19;77.52;100248.11;106095;1268;22539;-55
2022/06/10 01:02:47;;;;;;;7.90;2.70;;;;;;;17.19;77.69;100248.42;106012;1268;22554;-54
2022/06/10 01:05:22;;;;;;;7.00;1.90;;;;;;;17.19;77.81;100250.73;106088;1268;22550;-55
2022/06/10 01:07:58;;;;;;;7.30;2.00;;;;;;;17.18;77.86;100251.36;105990;1268;22544;-55
2022/06/10 01:10:39;;;;;;;9.30;2.10;;;;;;;17.17;77.86;100254.80;106087;1268;22690;-54
2022/06/10 01:13:25;;;;;;;7.30;2.10;;;;;;;17.17;77.93;100258.19;106127;1268;22549;-55
2022/06/10 01:16:06;;;;;;;8.50;2.10;;;;;;;17.17;77.91;100262.54;106090;1268;24192;-54
2022/06/10 01:18:50;;;;;;;10.80;2.20;;;;;;;17.16;78.07;100261.84;106029;1268;22548;-55
2022/06/10 01:22:02;;;;;;;8.20;2.20;;;;;;;17.16;78.09;100268.19;106118;1268;25349;-54
2022/06/10 01:24:59;;;;;;;6.30;2.00;;;;;;;17.15;78.08;100269.95;106210;1268;22543;-53
2022/06/10 01:27:52;;;;;;;7.40;2.10;;;;;;;17.14;78.25;100272.77;106076;1268;22547;-55
2022/06/10 01:30:51;;;;;;;5.50;1.80;;;;;;;17.14;78.28;100273.75;106090;1268;22970;-54
2022/06/10 01:33:34;;;;;;;8.50;2.10;;;;;;;17.13;78.40;100278.83;106106;1269;22764;-52
2022/06/10 01:36:16;;;;;;;8.10;2.10;;;;;;;17.12;78.32;100285.71;106176;1268;24341;-55
2022/06/10 01:38:54;;;;;;;6.10;2.30;;;;;;;17.11;78.55;100290.23;106104;1268;25349;-53
2022/06/10 01:41:35;;;;;;;6.00;2.10;;;;;;;17.10;78.40;100290.85;106145;1268;22518;-54
2022/06/10 01:44:14;;;;;;;7.90;2.30;;;;;;;17.09;78.61;100298.14;106173;1269;24370;-51
2022/06/10 01:46:53;;;;;;;6.10;2.10;;;;;;;17.09;78.67;100295.98;106171;1268;22518;-52
2022/06/10 01:49:28;;;;;;;7.60;2.20;;;;;;;17.08;78.59;100299.27;106193;1268;25263;-52
2022/06/10 01:52:06;;;;;;;6.70;1.80;;;;;;;17.08;78.62;100302.20;106147;1268;25330;-57
2022/06/10 01:54:44;;;;;;;7.20;2.10;;;;;;;17.07;78.89;100303.08;106126;1268;22547;-52
2022/06/10 01:57:23;;;;;;;13.20;3.10;;;;;;;17.06;78.84;100309.04;106031;1268;22541;-54
2022/06/10 02:00:00;;;;;;;5.60;2.20;;;;;;;17.06;78.91;100312.42;106373;1265;22561;-67
2022/06/10 02:02:36;;;;;;;8.10;2.00;;;;;;;17.06;78.87;100319.29;105973;1271;24251;-65
2022/06/10 02:05:15;;;;;;;6.60;2.00;;;;;;;17.05;79.08;100324.84;108000;1270;22557;-65
2022/06/10 02:07:51;;;;;;;7.40;2.40;;;;;;;17.03;79.14;100323.77;105864;1270;22533;-65
2022/06/10 02:10:30;;;;;;;7.50;2.00;;;;;;;17.02;79.25;100320.75;105987;1270;22564;-66
2022/06/10 02:13:07;;;;;;;8.60;2.10;;;;;;;17.00;79.27;100316.61;105795;1271;24277;-65
2022/06/10 02:15:43;;;;;;;5.90;2.10;;;;;;;16.98;79.31;100322.20;105880;1271;22531;-65
2022/06/10 02:18:18;;;;;;;9.30;2.40;;;;;;;16.96;79.52;100324.94;109801;1270;23395;-66
2022/06/10 02:20:54;;;;;;;7.40;2.20;;;;;;;16.95;79.45;100333.16;107574;1271;22898;-65
2022/06/10 02:23:30;;;;;;;10.10;2.10;;;;;;;16.94;79.70;100336.85;105688;1270;22549;-66
2022/06/10 02:26:03;;;;;;;10.60;2.30;;;;;;;16.93;79.59;100337.87;105962;1271;24292;-65
2022/06/10 02:28:39;;;;;;;8.50;2.30;;;;;;;16.91;79.96;100342.30;105806;1270;25265;-66
2022/06/10 02:31:16;;;;;;;7.90;2.40;;;;;;;16.87;80.23;100342.73;105874;1271;22571;-66
2022/06/10 02:33:49;;;;;;;10.60;2.50;;;;;;;16.84;80.19;100342.93;105809;1271;25254;-66
2022/06/10 02:36:27;;;;;;;8.20;2.70;;;;;;;16.83;80.29;100343.05;106000;1270;25455;-65
2022/06/10 02:39:08;;;;;;;8.70;2.90;;;;;;;16.81;80.46;100347.42;105697;1271;24419;-65
2022/06/10 02:41:50;;;;;;;5.70;2.00;;;;;;;16.78;80.77;100350.92;105739;1271;22535;-66
2022/06/10 02:44:30;;;;;;;6.20;2.20;;;;;;;16.76;81.06;100356.11;105849;1271;22996;-65
2022/06/10 02:47:10;;;;;;;7.40;2.60;;;;;;;16.72;80.98;100357.23;105998;1271;22519;-64
2022/06/10 02:49:40;;;;;;;;;;;;;;;16.70;81.18;100359.71;105752;1271;22580;-65
2022/06/10 02:52:14;;;;;;;11.10;2.90;;;;;;;16.65;81.41;100361.02;105830;1271;25260;-65
2022/06/10 02:54:46;;;;;;;7.40;2.70;;;;;;;16.63;81.45;100366.63;105937;1271;22558;-65
2022/06/10 02:57:21;;;;;;;9.10;2.20;;;;;;;16.61;81.62;100370.72;105670;1271;23086;-65
2022/06/10 03:02:46;;;;;;;;;;;;;;;16.54;81.76;100375.77;105799;1273;22500;-65
2022/06/10 03:05:32;;;;;;;9.80;2.80;;;;;;;16.51;82.07;100382.73;105972;1272;22496;-65
2022/06/10 03:08:14;;;;;;;9.80;2.90;;;;;;;16.49;82.13;100390.42;106021;1271;22544;-65
2022/06/10 03:10:58;;;;;;;8.20;2.90;;;;;;;16.48;82.45;100392.05;106186;1273;22547;-64
2022/06/10 03:13:53;;;;;;;8.40;3.20;;;;;;;16.46;82.36;100399.94;105858;1273;24529;-65
2022/06/10 03:16:40;;;;;;;10.70;2.80;;;;;;;16.45;82.55;100405.64;105641;1271;22553;-65
2022/06/10 03:19:30;;;;;;;7.50;3.10;;;;;;;16.43;82.73;100406.71;105672;1272;26369;-65
2022/06/10 03:22:11;;;;;;;10.30;2.90;;;;;;;16.44;82.84;100411.02;105617;1273;24349;-65
2022/06/10 03:24:55;;;;;;;8.60;3.40;;;;;;;16.45;83.00;100417.46;105781;1273;26517;-65
2022/06/10 03:27:32;;;;;;;9.20;3.20;;;;;;;16.45;83.02;100418.48;105782;1273;25215;-68
2022/06/10 03:30:07;;;;;;;9.10;3.10;;;;;;;16.47;83.27;100425.30;105746;1271;22542;-65
2022/06/10 03:32:44;;;;;;;12.20;3.70;;;;;;;16.48;83.48;100431.49;105774;1273;22723;-65
2022/06/10 03:35:21;;;;;;;8.60;3.10;;;;;;;16.50;83.29;100432.48;105882;1273;24436;-65
2022/06/10 03:37:53;;;;;;;11.60;3.20;;;;;;;16.53;83.45;100435.05;105850;1271;22535;-66
2022/06/10 03:40:28;;;;;;;6.30;2.40;;;;;;;16.57;83.72;100439.71;105845;1271;23390;-66
2022/06/10 03:43:03;;;;;;;8.60;3.00;;;;;;;16.60;83.68;100442.58;105756;1273;22546;-66
2022/06/10 03:45:39;;;;;;;8.70;3.40;;;;;;;16.64;83.56;100450.25;105923;1273;22601;-66
2022/06/10 03:48:14;;;;;;;9.60;3.40;;;;;;;16.68;83.43;100453.68;105904;1272;25381;-66
2022/06/10 03:50:47;;;;;;;9.20;3.20;;;;;;;16.71;83.49;100459.15;105635;1273;22606;-66
2022/06/10 03:53:21;;;;;;;8.70;3.00;;;;;;;16.74;83.28;100461.23;105761;1273;22539;-67
2022/06/10 03:55:53;;;;;;;10.00;3.10;;;;;;;16.78;83.18;100470.00;105820;1273;22531;-67
2022/06/10 03:58:25;;;;;;;8.10;2.40;;;;;;;16.80;83.19;100474.97;105795;1273;25295;-67
2022/06/10 04:00:58;;;;;;;8.80;3.20;;;;;;;16.82;83.03;100477.31;105840;1271;24329;-66
2022/06/10 04:03:30;;;;;;;9.90;2.90;;;;;;;16.84;82.94;100483.16;105772;1271;25299;-67
2022/06/10 04:06:01;;;;;;;6.30;2.90;;;;;;;16.87;82.97;100482.64;105778;1271;22648;-67
2022/06/10 04:08:34;;;;;;;7.80;2.40;;;;;;;16.90;83.00;100489.04;105828;1271;22556;-66
2022/06/10 04:11:05;;;;;;;10.20;2.60;;;;;;;16.93;82.72;100490.71;105813;1271;23355;-66
2022/06/10 04:13:38;;;;;;;7.40;2.30;;;;;;;16.94;82.45;100492.42;105738;1271;22519;-66
2022/06/10 04:16:10;;;;;;;8.80;2.80;;;;;;;16.94;82.23;100500.41;105550;1273;25330;-66
2022/06/10 04:18:41;;;;;;;6.90;2.00;;;;;;;16.95;82.25;100498.77;105713;1271;26117;-66
2022/06/10 04:21:13;;;;;;;8.10;2.50;;;;;;;16.97;82.20;100501.23;105818;1271;24423;-66
2022/06/10 04:23:45;;;;;;;9.90;2.60;;;;;;;16.98;82.18;100502.40;105966;1271;22559;-66
2022/06/10 04:26:16;;;;;;;7.30;2.40;;;;;;;16.99;82.18;100504.40;105757;1271;24432;-65
2022/06/10 04:28:48;;;;;;;5.50;2.30;;;;;;;17.02;82.04;100509.16;105973;1271;22536;-65
2022/06/10 04:31:20;;;;;;;5.60;1.90;;;;;;;17.04;81.53;100513.77;105976;1271;22562;-66
2022/06/10 04:33:52;;;;;;;8.40;1.90;;;;;;;17.05;81.31;100513.45;105872;1271;26782;-65
2022/06/10 04:36:35;;;;;;;6.60;2.60;;;;;;;17.05;80.98;100516.64;105834;1270;25321;-65
2022/06/10 04:39:24;;;;;;;7.70;1.90;;;;;;;17.05;80.41;100521.15;106530;1271;25369;-66
2022/06/10 04:42:03;;;;;;;7.20;2.00;;;;;;;17.07;80.31;100525.77;105933;1271;22550;-66
2022/06/10 04:44:35;;;;;;;7.30;1.70;;;;;;;17.09;80.12;100522.46;105988;1271;25488;-66
2022/06/10 04:47:08;;;;;;;6.10;1.70;;;;;;;17.11;79.54;100526.52;105890;1271;25255;-66
2022/06/10 04:49:40;;;;;;;5.90;2.00;;;;;;;17.12;79.74;100531.90;105991;1271;26013;-66
2022/06/10 04:52:11;;;;;;;7.80;1.50;;;;;;;17.13;79.50;100529.23;105710;1271;25336;-66
2022/06/10 04:54:43;;;;;;;5.80;1.70;;;;;;;17.14;79.23;100534.56;105865;1271;22564;-65
2022/06/10 04:57:15;;;;;;;4.70;1.50;;;;;;;17.14;78.83;100539.02;105740;1271;24234;-65
2022/06/10 04:59:47;;;;;;;4.30;1.60;;;;;;;17.14;78.96;100544.92;106602;1271;45808;-65
2022/06/10 05:02:18;;;;;;;6.30;1.50;;;;;;;17.14;78.90;100548.27;106268;1273;24294;-66
2022/06/10 05:04:50;;;;;;;4.50;1.40;;;;;;;17.17;78.43;100553.33;105825;1273;22580;-66
2022/06/10 05:07:21;;;;;;;7.20;1.60;;;;;;;17.18;78.47;100561.59;105711;1273;22744;-66
2022/06/10 05:09:53;;;;;;;6.60;1.50;;;;;;;17.22;78.35;100565.05;106110;1273;22628;-66
2022/06/10 05:12:24;;;;;;;5.40;1.50;;;;;;;17.26;78.41;100567.87;105796;1273;22537;-66
2022/06/10 05:14:56;;;;;;;4.40;1.40;;;;;;;17.29;77.95;100575.81;106500;1273;23453;-67
2022/06/10 05:17:27;;;;;;;5.20;1.50;;;;;;;17.33;78.06;100573.19;105931;1273;22757;-65
2022/06/10 05:19:59;;;;;;;5.50;1.40;;;;;;;17.38;77.76;100572.20;105794;1272;25340;-64
2022/06/10 05:22:30;;;;;;;7.00;1.40;;;;;;;17.41;76.94;100571.72;105864;1273;24329;-65
2022/06/10 05:25:03;;;;;;;4.50;1.50;;;;;;;17.44;77.24;100574.42;105770;1273;22521;-66
2022/06/10 05:27:35;;;;;;;5.90;1.50;;;;;;;17.47;76.66;100579.35;106125;1273;25377;-66
2022/06/10 05:30:10;;;;;;;4.60;1.40;;;;;;;17.50;76.54;100587.31;105979;1273;22535;-66
2022/06/10 05:32:42;;;;;;;5.60;1.50;;;;;;;17.52;76.29;100588.59;105762;1273;23395;-67
2022/06/10 05:35:14;;;;;;;4.20;1.10;;;;;;;17.56;76.66;100595.77;105678;1273;22553;-66
2022/06/10 05:37:47;;;;;;;4.80;1.50;;;;;;;17.61;76.45;100596.05;106213;1273;25376;-66
2022/06/10 05:40:21;;;;;;;6.70;1.30;;;;;;;17.68;76.47;100598.18;105809;1273;22551;-66
2022/06/10 05:42:52;;;;;;;4.60;1.60;;;;;;;17.77;76.19;100599.38;105620;1273;22532;-66
2022/06/10 05:45:25;;;;;;;5.90;1.30;;;;;;;17.83;74.98;100602.33;105867;1273;22535;-66
2022/06/10 05:48:01;;;;;;;4.90;1.30;;;;;;;17.89;74.92;100606.46;105996;1272;22544;-66
2022/06/10 05:50:36;;;;;;;6.90;1.40;;;;;;;17.98;74.92;100612.82;105823;1273;22564;-66
2022/06/10 05:53:12;;;;;;;4.70;1.20;;;;;;;18.06;74.42;100609.55;105967;1273;26619;-66
2022/06/10 05:55:44;;;;;;;7.10;1.30;;;;;;;18.15;73.98;100610.52;105687;1273;26161;-65
2022/06/10 05:58:16;;;;;;;6.00;1.40;;;;;;;18.23;73.73;100622.66;105905;1273;24286;-65
2022/06/10 06:00:52;;;;;;;5.90;1.20;;;;;;;18.33;73.37;100623.16;105843;1273;23906;-66
2022/06/10 06:03:24;;;;;;;4.90;1.30;;;;;;;18.44;73.38;100620.98;105948;1273;22528;-66
2022/06/10 06:05:56;;;;;;;8.40;1.10;;;;;;;18.56;72.58;100622.20;105756;1273;25317;-67
2022/06/10 06:08:27;;;;;;;6.20;1.10;;;;;;;18.63;72.48;100625.55;105654;1273;25346;-66
2022/06/10 06:10:59;;;;;;;6.90;1.70;;;;;;;18.70;71.19;100630.68;106144;1273;22547;-65
2022/06/10 06:13:30;;;;;;;5.50;1.20;;;;;;;18.77;71.67;100625.33;105750;1273;23907;-65
2022/06/10 06:16:03;;;;;;;3.60;1.10;;;;;;;18.86;71.86;100633.89;105705;1273;22561;-66
2022/06/10 06:18:35;;;;;;;3.70;1.10;;;;;;;18.91;70.68;100634.94;106078;1273;25377;-66
2022/06/10 06:21:07;;;;;;;4.20;1.00;;;;;;;18.92;71.31;100641.77;105884;1273;26963;-67
2022/06/10 06:23:41;;;;;;;6.50;1.20;;;;;;;18.94;70.49;100641.13;105914;1273;24356;-66
2022/06/10 06:26:15;;;;;;;5.70;1.20;;;;;;;18.91;70.35;100645.58;106262;1273;22553;-66
2022/06/10 06:28:47;;;;;;;4.60;1.00;;;;;;;18.88;70.44;100645.81;105929;1273;22550;-66
2022/06/10 06:31:19;;;;;;;4.30;1.20;;;;;;;18.90;70.63;100649.65;105927;1273;22560;-66
2022/06/10 06:33:51;;;;;;;6.50;1.00;;;;;;;18.90;70.44;100652.42;105987;1273;25361;-66
2022/06/10 06:36:24;;;;;;;4.30;1.20;;;;;;;18.91;70.61;100665.12;105970;1273;24266;-66
2022/06/10 06:38:57;;;;;;;8.80;1.60;;;;;;;18.89;69.85;100665.55;106242;1273;25400;-66
2022/06/10 06:41:28;;;;;;;4.50;1.20;;;;;;;18.81;69.52;100670.10;106958;1273;24281;-66
2022/06/10 06:44:04;;;;;;;5.20;1.30;;;;;;;18.77;70.01;100670.63;105893;1273;26212;-66
2022/06/10 06:46:38;;;;;;;4.70;1.20;;;;;;;18.77;70.16;100674.02;105712;1272;22681;-66
2022/06/10 06:49:14;;;;;;;3.60;1.10;;;;;;;18.79;70.08;100679.48;106044;1273;25375;-66
2022/06/10 06:51:47;;;;;;;8.20;1.30;;;;;;;18.80;70.31;100686.00;105886;1273;23822;-66
2022/06/10 06:54:19;;;;;;;6.60;1.10;;;;;;;18.85;70.53;100689.55;106087;1273;24239;-67
2022/06/10 06:56:53;;;;;;;4.20;1.00;;;;;;;18.93;70.20;100693.05;105950;1273;22614;-65
2022/06/10 06:59:25;;;;;;;6.80;1.20;;;;;;;18.97;70.16;100694.35;105923;1273;25481;-66
2022/06/10 07:01:57;;;;;;;3.70;1.10;;;;;;;19.02;70.21;100697.65;105860;1273;22557;-66
2022/06/10 07:04:29;;;;;;;4.30;1.20;;;;;;;19.06;69.51;100701.94;105809;1273;24259;-65
2022/06/10 07:07:02;;;;;;;5.30;1.50;;;;;;;19.06;69.00;100706.77;105817;1273;25427;-66
2022/06/10 07:09:34;;;;;;;5.60;1.40;;;;;;;19.08;69.71;100706.40;105943;1273;23067;-67
2022/06/10 07:12:08;;;;;;;6.40;1.10;;;;;;;19.13;69.20;100707.90;105892;1273;25326;-66
2022/06/10 07:14:40;;;;;;;6.80;1.60;;;;;;;19.17;69.00;100710.74;105923;1273;22571;-66
2022/06/10 07:17:12;;;;;;;7.70;1.60;;;;;;;19.20;69.16;100705.82;105840;1273;22560;-68
2022/06/10 07:19:48;;;;;;;4.60;1.50;;;;;;;19.26;68.87;100714.32;105984;1273;22626;-65
2022/06/10 07:22:19;;;;;;;4.80;1.40;;;;;;;19.28;68.79;100716.42;105687;1273;22553;-66
2022/06/10 07:24:51;;;;;;;6.80;1.80;;;;;;;19.29;68.71;100718.46;105859;1273;25102;-66
2022/06/10 07:27:23;;;;;;;3.90;1.20;;;;;;;19.30;68.65;100717.42;101884;1273;5426681;-66
2022/06/10 07:29:55;;;;;;;5.40;1.40;;;;;;;19.31;68.47;100720.81;105857;1273;22535;-66
2022/06/10 07:32:27;;;;;;;7.70;1.30;;;;;;;19.30;68.71;100717.33;105917;1273;25479;-67
2022/06/10 07:34:59;;;;;;;6.30;1.50;;;;;;;19.32;68.94;100726.31;105985;1273;22539;-67
2022/06/10 07:37:30;;;;;;;4.50;1.30;;;;;;;19.31;67.73;100726.10;106070;1273;26468;-67
2022/06/10 07:40:02;;;;;;;3.80;1.10;;;;;;;19.25;67.31;100726.06;106278;1273;24292;-68
2022/06/10 07:42:35;;;;;;;4.40;1.10;;;;;;;19.22;67.29;100723.76;106274;1273;22883;-66
2022/06/10 07:45:08;;;;;;;6.20;1.10;;;;;;;19.23;66.98;100724.73;106057;1273;24904;-66
2022/06/10 07:47:41;;;;;;;2.20;0.70;;;;;;;19.23;67.03;100729.84;105897;1273;22535;-67
2022/06/10 07:50:14;;;;;;;5.20;1.00;;;;;;;19.24;66.91;100731.59;106044;1273;25371;-66
2022/06/10 07:52:45;;;;;;;3.70;0.90;;;;;;;19.27;66.97;100726.00;105845;1273;22591;-66
2022/06/10 07:55:18;;;;;;;6.60;1.10;;;;;;;19.33;66.41;100729.05;106019;1273;24929;-66
2022/06/10 07:57:49;;;;;;;3.00;0.80;;;;;;;19.37;66.39;100728.20;106115;1271;25642;-67
2022/06/10 08:00:22;;;;;;;4.40;0.70;;;;;;;19.48;66.28;100725.95;106537;1266;24332;-56
2022/06/10 08:02:54;;;;;;;1.60;0.60;;;;;;;19.64;65.53;100731.09;106333;1270;24370;-56
2022/06/10 08:05:26;;;;;;;2.30;0.70;;;;;;;19.77;63.85;100733.98;106207;1270;22625;-55
2022/06/10 08:08:01;;;;;;;6.00;1.00;;;;;;;19.86;63.83;100730.80;105990;1270;24229;-55
2022/06/10 08:10:38;;;;;;;2.40;0.70;;;;;;;19.93;62.89;100736.39;105951;1270;24373;-55
2022/06/10 08:13:10;;;;;;;4.70;0.80;;;;;;;19.97;62.72;100739.99;106005;1270;22535;-53
2022/06/10 08:15:45;;;;;;;2.70;1.00;;;;;;;20.04;62.53;100735.95;106081;1271;22525;-54
2022/06/10 08:18:19;;;;;;;3.70;0.70;;;;;;;20.11;62.41;100734.27;105964;1270;22511;-55
2022/06/10 08:23:41;;;;;;;;;;;;;;;20.38;61.57;100736.84;106028;1270;25497;-55
2022/06/10 08:26:13;;;;;;;2.30;0.80;;;;;;;20.51;60.69;100732.75;106042;1270;24347;-54
2022/06/10 08:28:48;;;;;;;8.60;1.50;;;;;;;20.56;61.05;100733.86;106132;1270;22625;-55
2022/06/10 08:31:20;;;;;;;2.40;1.00;;;;;;;20.62;60.22;100732.34;106323;1270;22625;-56
2022/06/10 08:33:52;;;;;;;5.60;0.70;;;;;;;20.67;60.17;100730.30;106109;1270;26538;-54
2022/06/10 08:36:24;;;;;;;3.00;0.50;;;;;;;20.71;58.74;100736.07;106057;1270;24157;-55
2022/06/10 08:38:56;;;;;;;4.90;0.50;;;;;;;20.69;56.41;100747.45;106025;1270;22564;-55
2022/06/10 08:41:38;;;;;;;2.60;0.60;;;;;;;20.65;56.44;100742.05;106352;1270;25283;-54
2022/06/10 08:44:17;;;;;;;4.30;0.70;;;;;;;20.76;56.53;100737.26;106248;1270;24759;-52
2022/06/10 08:47:19;;;;;;;3.70;0.70;;;;;;;20.84;57.06;100731.86;106212;1270;24243;-53
2022/06/10 08:50:22;;;;;;;7.10;0.70;;;;;;;20.92;55.73;100739.98;106086;1270;22635;-54
2022/06/10 08:53:03;;;;;;;3.10;0.50;;;;;;;20.97;54.17;100751.64;105999;1270;22530;-56
2022/06/10 08:55:46;;;;;;;3.60;0.70;;;;;;;20.99;53.94;100751.14;105945;1270;22553;-55
2022/06/10 08:58:21;;;;;;;3.60;0.80;;;;;;;20.95;53.80;100740.20;105958;1271;23230;-54
2022/06/10 09:00:56;;;;;;;2.30;0.90;;;;;;;20.91;54.57;100753.17;105900;1270;25426;-55
2022/06/10 09:03:35;;;;;;;2.10;0.70;;;;;;;20.79;55.55;100754.27;106043;1271;22525;-55
2022/06/10 09:06:13;;;;;;;3.80;0.90;;;;;;;20.69;56.40;100755.09;106029;1270;22542;-55
2022/06/10 09:08:50;;;;;;;3.40;0.90;;;;;;;20.66;55.90;100755.45;106341;1270;22530;-56
2022/06/10 09:11:27;;;;;;;4.60;0.90;;;;;;;20.61;54.86;100761.89;106187;1270;25390;-55
2022/06/10 09:14:02;;;;;;;6.80;1.20;;;;;;;20.56;54.26;100760.56;106085;1270;22557;-55
2022/06/10 09:16:40;;;;;;;4.40;0.80;;;;;;;20.56;54.59;100768.25;106108;1270;25321;-58
2022/06/10 09:19:16;;;;;;;3.90;1.00;;;;;;;20.57;54.14;100765.67;106041;1270;22610;-55
2022/06/10 09:21:53;;;;;;;2.80;0.80;;;;;;;20.61;52.59;100760.77;105893;1270;25543;-54
2022/06/10 09:24:33;;;;;;;2.90;0.70;;;;;;;20.68;52.72;100771.98;105889;1270;22535;-55
2022/06/10 09:27:10;;;;;;;5.50;0.80;;;;;;;20.68;52.76;100777.13;105998;1270;26572;-55
2022/06/10 09:29:42;;;;;;;2.40;0.90;;;;;;;20.64;52.90;100769.25;106111;1270;24277;-56
2022/06/10 09:32:20;;;;;;;4.50;0.80;;;;;;;20.64;53.47;100771.27;106040;1270;22534;-56
2022/06/10 09:35:03;;;;;;;4.50;1.00;;;;;;;20.74;53.99;100772.66;106006;1270;22541;-56
2022/06/10 09:37:46;;;;;;;5.00;1.00;;;;;;;20.83;53.16;100772.64;106154;1270;22605;-56
2022/06/10 09:40:38;;;;;;;4.60;1.00;;;;;;;20.95;53.07;100773.23;106051;1270;24394;-55
2022/06/10 09:43:47;;;;;;;9.70;1.10;;;;;;;21.04;53.09;100775.15;106030;1270;25510;-57
2022/06/10 09:46:42;;;;;;;5.40;1.10;;;;;;;21.17;53.51;100775.41;105281;1281;23305;-57
2022/06/10 09:49:37;;;;;;;6.40;1.10;;;;;;;21.26;53.07;100771.95;104478;1287;24248;-55
2022/06/10 09:52:17;;;;;;;5.10;1.30;;;;;;;21.36;52.99;100766.90;104590;1287;25391;-55
2022/06/10 09:55:10;;;;;;;6.60;1.30;;;;;;;21.48;53.49;100768.95;104565;1287;22657;-55
2022/06/10 09:58:13;;;;;;;5.50;1.20;;;;;;;21.60;53.15;100768.74;104625;1288;25481;-56
2022/06/10 10:00:52;;;;;;;9.90;1.30;;;;;;;21.63;53.29;100768.42;103832;1296;24405;-57
2022/06/10 10:03:41;;;;;;;6.00;1.30;;;;;;;21.69;53.50;100765.82;103778;1295;23070;-62
2022/06/10 10:06:29;;;;;;;5.00;1.20;;;;;;;21.75;52.84;100765.73;103812;1295;22578;-56
2022/06/10 10:09:13;;;;;;;7.40;1.10;;;;;;;21.74;52.81;100765.49;103782;1296;22573;-55
2022/06/10 10:11:51;;;;;;;5.10;1.00;;;;;;;21.75;52.56;100757.27;103724;1296;24411;-57
2022/06/10 10:14:34;;;;;;;6.70;0.80;;;;;;;21.84;52.10;100755.09;103698;1296;22730;-53
2022/06/10 10:17:31;;;;;;;4.00;1.00;;;;;;;21.93;51.52;100756.59;103707;1295;22592;-55
2022/06/10 10:20:10;;;;;;;3.70;0.80;;;;;;;21.99;51.24;100753.38;103774;1296;22566;-56
2022/06/10 10:23:12;;;;;;;2.70;0.70;;;;;;;22.08;51.89;100753.10;103768;1292;22575;-56
2022/06/10 10:25:46;;;;;;;5.60;0.80;;;;;;;22.22;50.35;100758.08;104397;1288;25640;-56
2022/06/10 10:28:22;;;;;;;2.40;0.80;;;;;;;22.32;50.72;100758.02;105265;1281;24237;-54
2022/06/10 10:31:08;;;;;;;4.20;0.80;;;;;;;22.40;50.00;100764.20;105194;1281;22760;-53
2022/06/10 10:33:39;;;;;;;5.20;0.90;;;;;;;22.43;48.84;100769.74;105401;1281;22559;-52
2022/06/10 10:36:25;;;;;;;5.90;0.90;;;;;;;22.36;49.31;100761.05;105149;1281;22548;-55
2022/06/10 10:38:58;;;;;;;4.10;0.80;;;;;;;22.39;49.68;100762.59;105593;1271;22560;-54
2022/06/10 10:41:40;;;;;;;4.10;0.80;;;;;;;22.40;49.81;100759.91;106290;1270;25280;-54
2022/06/10 10:44:26;;;;;;;3.70;0.80;;;;;;;22.36;49.47;100767.30;106154;1270;23915;-54
2022/06/10 10:47:16;;;;;;;3.40;0.90;;;;;;;22.32;50.05;100758.48;106174;1270;22543;-54
2022/06/10 10:49:52;;;;;;;5.10;0.90;;;;;;;22.44;50.06;100757.61;106084;1270;24287;-55
2022/06/10 10:52:26;;;;;;;2.20;0.60;;;;;;;22.52;49.85;100748.19;105919;1270;25308;-54
2022/06/10 10:55:01;;;;;;;4.00;0.70;;;;;;;22.64;49.91;100754.00;106157;1269;24024;-53
2022/06/10 10:57:37;;;;;;;2.80;0.70;;;;;;;22.81;49.27;100753.61;106194;1270;23669;-55
2022/06/10 11:00:31;;;;;;;1.40;0.50;;;;;;;22.93;48.51;100750.44;106084;1270;22567;-55
2022/06/10 11:03:03;;;;;;;2.40;0.70;;;;;;;22.94;48.65;100756.22;105794;1270;22586;-55
2022/06/10 11:05:37;;;;;;;4.20;0.80;;;;;;;22.81;48.26;100763.85;106206;1270;25247;-55
2022/06/10 11:08:20;;;;;;;4.00;0.80;;;;;;;22.67;49.08;100749.95;106163;1270;25339;-56
2022/06/10 11:11:23;;;;;;;3.60;0.60;;;;;;;22.74;49.14;100754.24;105992;1270;25226;-56
2022/06/10 11:13:58;;;;;;;3.10;0.60;;;;;;;22.82;47.84;100761.88;105604;1275;22878;-53
2022/06/10 11:16:56;;;;;;;2.90;0.70;;;;;;;22.74;47.69;100755.58;105407;1276;24294;-56
2022/06/10 11:19:43;;;;;;;4.30;0.60;;;;;;;22.75;48.16;100750.08;105457;1276;22553;-55
2022/06/10 11:22:39;;;;;;;1.90;0.40;;;;;;;22.94;47.71;100756.83;105682;1276;22554;-56
2022/06/10 11:25:30;;;;;;;3.40;0.50;;;;;;;23.09;46.78;100755.27;105545;1276;22547;-52
2022/06/10 11:28:06;;;;;;;3.90;0.60;;;;;;;23.22;47.22;100754.91;105421;1276;25572;-55
2022/06/10 11:30:43;;;;;;;3.60;0.50;;;;;;;23.29;46.64;100751.83;105410;1276;25441;-54
2022/06/10 11:33:28;;;;;;;3.10;0.50;;;;;;;23.30;46.93;100746.47;105700;1276;22584;-55
2022/06/10 11:36:07;;;;;;;2.90;0.60;;;;;;;23.27;46.08;100748.77;105420;1276;23257;-53
2022/06/10 11:38:48;;;;;;;3.10;0.40;;;;;;;23.22;44.99;100752.67;105614;1276;22555;-53
2022/06/10 11:41:27;;;;;;;1.50;0.30;;;;;;;23.20;45.35;100746.31;105501;1276;22565;-55
2022/06/10 11:44:06;;;;;;;2.90;0.30;;;;;;;23.23;45.06;100741.10;105382;1276;25357;-56
2022/06/10 11:46:42;;;;;;;;;;;;;;;23.28;44.04;100740.52;105702;1276;22604;-56
2022/06/10 11:49:23;;;;;;;3.10;0.30;;;;;;;23.33;43.77;100739.22;105438;1276;23037;-55
2022/06/10 11:52:00;;;;;;;3.20;0.30;;;;;;;23.42;42.84;100749.27;106039;1270;22544;-56
2022/06/10 11:54:39;;;;;;;1.60;0.20;;;;;;;23.45;42.67;100741.93;106170;1270;22764;-56
2022/06/10 12:00:20;;;;;;;1.00;0.20;;;;;;;23.54;42.49;100734.09;105937;1270;24357;-57
2022/06/10 12:02:59;;;;;;;1.00;0.20;;;;;;;23.60;42.01;100736.69;106089;1270;24285;-56
2022/06/10 12:05:45;;;;;;;3.00;0.20;;;;;;;23.64;40.61;100734.48;106169;1270;22525;-56
2022/06/10 12:08:28;;;;;;;5.10;0.40;;;;;;;23.70;40.79;100736.66;106007;1270;24215;-54
2022/06/10 12:11:06;;;;;;;1.20;0.20;;;;;;;23.75;41.01;100734.02;105740;1270;25291;-57